HORACE LAKE: From 11/23/2021 22:00 to 01/23/2022 04:00

Date LAKE ELEVATION [FT] PRECIPITATION INCREMENT [IN] AIR TEMPERATURE [F] RELATIVE HUMIDITY [%] RELEASE [CFS]
01/22/2022 22:00 651.47 0.00 6.9 77.0 --
01/22/2022 21:00 651.47 0.00 7.4 75.0 --
01/22/2022 20:00 651.47 0.00 7.1 74.0 --
01/22/2022 19:00 651.47 0.00 8.5 71.0 --
01/22/2022 18:00 651.48 0.00 10.8 67.0 --
01/22/2022 17:00 651.47 0.00 13.0 60.0 --
01/22/2022 16:00 651.48 0.00 17.4 51.0 --
01/22/2022 15:00 651.48 0.00 19.4 36.0 --
01/22/2022 14:00 651.48 0.00 20.8 36.0 --
01/22/2022 13:00 651.48 0.00 16.4 40.0 --
01/22/2022 12:00 651.48 0.00 14.0 44.0 --
01/22/2022 11:00 651.49 0.00 9.5 55.0 --
01/22/2022 10:00 651.49 0.00 -1.7 74.0 --
01/22/2022 09:00 651.49 0.00 -9.1 75.0 --
01/22/2022 08:00 651.49 0.00 -13.2 77.0 --
01/22/2022 07:00 651.49 0.00 -13.1 77.0 --
01/22/2022 06:00 651.50 0.00 -12.0 78.0 --
01/22/2022 05:00 651.50 0.00 -11.0 78.0 --
01/22/2022 04:00 651.50 0.00 -10.2 79.0 --
01/22/2022 03:00 651.50 0.00 -8.8 79.0 --
01/22/2022 02:00 651.51 0.00 -7.8 80.0 --
01/22/2022 01:00 651.50 0.00 -6.3 79.0 --
01/22/2022 00:00 651.51 0.00 -4.7 79.0 --
01/21/2022 23:00 651.52 0.00 -3.2 76.0 --
01/21/2022 22:00 651.51 0.00 -0.8 74.0 --
01/21/2022 21:00 651.52 0.00 1.6 69.0 --
01/21/2022 20:00 651.52 0.00 5.1 61.0 --
01/21/2022 19:00 651.52 0.00 5.3 58.0 --
01/21/2022 18:00 651.51 0.00 8.8 50.0 --
01/21/2022 17:00 651.52 0.00 12.1 39.0 --
01/21/2022 16:00 651.52 0.00 14.1 34.0 --
01/21/2022 15:00 651.52 0.00 14.8 31.0 --
01/21/2022 14:00 651.53 0.00 13.5 36.0 --
01/21/2022 13:00 651.53 0.00 11.7 39.0 --
01/21/2022 12:00 651.52 0.00 10.1 41.0 --
01/21/2022 11:00 651.53 0.00 7.2 45.0 --
01/21/2022 10:00 651.54 0.00 4.2 52.0 --
01/21/2022 09:00 651.53 0.00 1.6 57.0 --
01/21/2022 08:00 651.53 0.00 -0.8 63.0 --
01/21/2022 07:00 651.55 0.00 -0.5 63.0 --
01/21/2022 06:00 651.54 0.00 0.0 60.0 --
01/21/2022 05:00 651.54 0.00 0.3 61.0 --
01/21/2022 04:00 651.55 0.00 0.9 62.0 --
01/21/2022 03:00 651.55 0.00 2.2 60.0 --
01/21/2022 02:00 651.55 0.00 3.9 58.0 --
01/21/2022 01:00 651.56 0.00 6.3 54.0 --
01/21/2022 00:00 651.56 0.00 7.9 53.0 --
01/20/2022 23:00 651.55 0.00 9.1 53.0 --
01/20/2022 22:00 651.57 0.00 10.9 51.0 --
01/20/2022 21:00 651.56 0.00 13.1 49.0 --
01/20/2022 20:00 651.53 0.00 15.2 48.0 --
01/20/2022 19:00 651.51 0.00 17.4 46.0 --
01/20/2022 18:00 651.51 0.00 19.7 47.0 --
01/20/2022 17:00 651.50 0.00 23.3 48.0 --
01/20/2022 16:00 651.53 0.00 26.3 45.0 --
01/20/2022 15:00 651.54 0.00 28.0 46.0 --
01/20/2022 14:00 651.56 0.00 28.7 49.0 --
01/20/2022 13:00 651.55 0.00 28.2 53.0 --
01/20/2022 12:00 651.55 0.00 28.8 55.0 --
01/20/2022 11:00 651.56 0.00 29.8 50.0 --
01/20/2022 10:00 651.56 0.00 30.8 58.0 --
01/20/2022 09:00 651.56 0.00 33.1 55.0 --
01/20/2022 08:00 651.55 0.00 35.0 55.0 --
01/20/2022 07:00 651.56 0.00 36.1 60.0 --
01/20/2022 06:00 651.56 0.00 36.9 66.0 --
01/20/2022 05:00 651.56 0.00 31.4 89.0 --
01/20/2022 04:00 651.56 0.00 30.5 93.0 --
01/20/2022 03:00 651.56 0.00 29.9 94.0 --
01/20/2022 02:00 651.56 0.00 29.8 93.0 --
01/20/2022 01:00 651.56 0.00 29.4 92.0 --
01/20/2022 00:00 651.56 0.00 29.2 89.0 --
01/19/2022 23:00 651.56 0.00 29.4 90.0 --
01/19/2022 22:00 651.56 0.00 29.9 86.0 --
01/19/2022 21:00 651.56 0.00 29.8 86.0 --
01/19/2022 20:00 651.56 0.00 30.2 84.0 --
01/19/2022 19:00 651.57 0.00 31.9 77.0 --
01/19/2022 18:00 651.56 0.01 38.4 55.0 --
01/19/2022 17:00 651.56 0.00 39.2 54.0 --
01/19/2022 16:00 651.56 0.01 39.9 52.0 --
01/19/2022 15:00 651.56 0.01 39.7 51.0 --
01/19/2022 14:00 651.56 0.00 38.3 53.0 --
01/19/2022 13:00 651.56 0.00 37.2 54.0 --
01/19/2022 12:00 651.57 0.01 34.9 56.0 --
01/19/2022 11:00 651.56 0.00 23.2 58.0 --
01/19/2022 10:00 651.55 0.00 14.1 69.0 --
01/19/2022 09:00 651.55 0.00 10.3 70.0 --
01/19/2022 08:00 651.56 0.00 7.8 73.0 --
01/19/2022 07:00 651.54 0.00 8.3 72.0 --
01/19/2022 06:00 651.55 0.00 6.7 73.0 --
01/19/2022 05:00 651.53 0.00 4.9 76.0 --
01/19/2022 04:00 651.55 0.00 4.4 80.0 --
01/19/2022 03:00 651.54 0.00 1.4 81.0 --
01/19/2022 02:00 651.54 0.00 0.7 80.0 --
01/19/2022 01:00 651.54 0.00 3.3 80.0 --
01/19/2022 00:00 651.55 0.00 5.5 76.0 --
01/18/2022 23:00 651.54 0.00 5.7 69.0 --
01/18/2022 22:00 651.53 0.00 9.5 66.0 --
01/18/2022 21:00 651.53 0.00 12.4 55.0 --
01/18/2022 20:00 651.54 0.00 14.0 51.0 --
01/18/2022 19:00 651.52 0.00 15.2 51.0 --
01/18/2022 18:00 651.53 0.00 16.5 49.0 --
01/18/2022 17:00 651.54 0.00 18.2 45.0 --
01/18/2022 16:00 651.52 0.00 20.0 46.0 --
01/18/2022 15:00 651.53 0.00 20.6 44.0 --
01/18/2022 14:00 651.52 0.00 21.5 46.0 --
01/18/2022 13:00 651.52 0.00 21.5 49.0 --
01/18/2022 12:00 651.51 0.00 20.5 52.0 --
01/18/2022 11:00 651.47 0.00 21.0 53.0 --
01/18/2022 10:00 651.51 0.00 19.6 60.0 --
01/18/2022 09:00 651.50 0.00 19.5 62.0 --
01/18/2022 08:00 651.48 0.00 20.0 62.0 --
01/18/2022 07:00 651.47 0.00 20.6 64.0 --
01/18/2022 06:00 651.48 0.00 21.5 66.0 --
01/18/2022 05:00 651.49 0.00 22.5 64.0 --
01/18/2022 04:00 651.49 0.00 23.6 65.0 --
01/18/2022 03:00 651.45 0.00 26.6 64.0 --
01/18/2022 02:00 651.45 0.00 27.6 68.0 --
01/18/2022 01:00 651.46 0.00 27.9 68.0 --
01/18/2022 00:00 651.48 0.00 29.7 71.0 --
01/17/2022 23:00 651.47 0.01 31.7 78.0 --
01/17/2022 22:00 651.44 0.01 34.0 74.0 --
01/17/2022 21:00 651.46 0.02 34.4 87.0 --
01/17/2022 20:00 651.46 0.03 34.6 87.0 --
01/17/2022 19:00 651.47 0.06 35.5 88.0 --
01/17/2022 18:00 651.45 0.09 36.2 87.0 --
01/17/2022 17:00 651.47 0.08 37.0 83.0 --
01/17/2022 16:00 651.46 0.12 37.6 84.0 --
01/17/2022 15:00 651.47 0.02 38.6 94.0 --
01/17/2022 14:00 651.46 0.04 38.3 100.0 --
01/17/2022 13:00 651.45 0.05 34.4 100.0 --
01/17/2022 12:00 651.45 0.11 32.8 100.0 --
01/17/2022 11:00 651.45 0.05 31.9 100.0 --
01/17/2022 10:00 651.43 0.00 31.8 100.0 --
01/17/2022 09:00 651.42 0.00 31.5 100.0 --
01/17/2022 08:00 651.38 0.00 29.6 100.0 --
01/17/2022 07:00 651.37 0.00 25.1 100.0 --
01/17/2022 06:00 651.36 0.00 22.3 99.0 --
01/17/2022 05:00 651.34 0.00 19.2 96.0 --
01/17/2022 04:00 651.33 0.00 17.7 93.0 --
01/17/2022 03:00 651.35 0.00 17.2 81.0 --
01/17/2022 02:00 651.34 0.00 18.1 61.0 --
01/17/2022 01:00 651.35 0.00 17.3 57.0 --
01/17/2022 00:00 651.33 0.00 16.7 53.0 --
01/16/2022 23:00 651.33 0.00 16.6 58.0 --
01/16/2022 22:00 651.34 0.00 16.4 60.0 --
01/16/2022 21:00 651.34 0.00 15.5 62.0 --
01/16/2022 20:00 651.34 0.00 14.3 62.0 --
01/16/2022 19:00 651.35 0.00 15.1 58.0 --
01/16/2022 18:00 651.34 0.00 16.4 51.0 --
01/16/2022 17:00 651.34 0.00 19.4 39.0 --
01/16/2022 16:00 651.34 0.00 22.4 44.0 --
01/16/2022 15:00 651.35 0.00 24.3 26.0 --
01/16/2022 14:00 651.35 0.00 24.5 24.0 --
01/16/2022 13:00 651.36 0.00 21.5 28.0 --
01/16/2022 12:00 651.36 0.00 18.4 31.0 --
01/16/2022 11:00 651.37 0.00 14.5 37.0 --
01/16/2022 10:00 651.37 0.00 5.3 51.0 --
01/16/2022 09:00 651.37 0.00 0.4 57.0 --
01/16/2022 08:00 651.37 0.00 -6.6 70.0 --
01/16/2022 07:00 651.38 0.00 -6.2 68.0 --
01/16/2022 06:00 651.37 0.00 -5.7 66.0 --
01/16/2022 05:00 651.38 0.00 -6.1 66.0 --
01/16/2022 04:00 651.37 0.00 -4.5 65.0 --
01/16/2022 03:00 651.38 0.00 -4.6 60.0 --
01/16/2022 02:00 651.38 0.00 -3.5 53.0 --
01/16/2022 01:00 651.39 0.00 -2.3 52.0 --
01/16/2022 00:00 651.39 0.00 -1.2 45.0 --
01/15/2022 23:00 651.39 0.00 -0.4 42.0 --
01/15/2022 22:00 651.38 0.00 0.5 39.0 --
01/15/2022 21:00 651.40 0.00 -0.6 40.0 --
01/15/2022 20:00 651.38 0.00 0.5 38.0 --
01/15/2022 19:00 651.39 0.00 2.1 36.0 --
01/15/2022 18:00 651.38 0.00 3.1 36.0 --
01/15/2022 17:00 651.36 0.00 3.8 34.0 --
01/15/2022 16:00 651.34 0.00 4.6 32.0 --
01/15/2022 15:00 651.41 0.00 5.4 31.0 --
01/15/2022 14:00 651.43 0.00 4.4 31.0 --
01/15/2022 13:00 651.43 0.00 3.0 32.0 --
01/15/2022 12:00 651.43 0.00 1.3 35.0 --
01/15/2022 11:00 651.42 0.00 -1.4 38.0 --
01/15/2022 10:00 651.43 0.00 -4.0 41.0 --
01/15/2022 09:00 651.41 0.00 -6.0 46.0 --
01/15/2022 08:00 651.44 0.00 -6.8 49.0 --
01/15/2022 07:00 651.42 0.00 -6.2 48.0 --
01/15/2022 06:00 651.43 0.00 -5.0 49.0 --
01/15/2022 05:00 651.46 0.00 -3.5 51.0 --
01/15/2022 04:00 651.44 0.00 -3.0 51.0 --
01/15/2022 03:00 651.44 0.00 -1.4 51.0 --
01/15/2022 02:00 651.41 0.00 0.1 53.0 --
01/15/2022 01:00 651.46 0.01 1.9 56.0 --
01/15/2022 00:00 651.44 0.00 3.8 54.0 --
01/14/2022 23:00 651.47 0.00 5.2 54.0 --
01/14/2022 22:00 651.45 0.00 7.5 51.0 --
01/14/2022 21:00 651.46 0.00 11.2 45.0 --
01/14/2022 20:00 651.47 0.00 14.3 45.0 --
01/14/2022 19:00 651.43 0.00 17.6 48.0 --
01/14/2022 18:00 651.46 0.00 20.2 50.0 --
01/14/2022 17:00 651.45 0.00 24.6 51.0 --
01/14/2022 16:00 651.44 0.00 28.5 53.0 --
01/14/2022 15:00 651.42 0.00 30.5 56.0 --
01/14/2022 14:00 651.47 0.00 33.4 58.0 --
01/14/2022 13:00 651.45 0.00 35.3 62.0 --
01/14/2022 12:00 651.46 0.00 35.2 70.0 --
01/14/2022 11:00 651.44 0.00 34.5 78.0 --
01/14/2022 10:00 651.46 0.00 28.7 94.0 --
01/14/2022 09:00 651.45 0.00 25.1 99.0 --
01/14/2022 08:00 651.45 0.00 23.8 99.0 --
01/14/2022 07:00 651.45 0.00 24.3 97.0 --
01/14/2022 06:00 651.44 0.00 25.8 94.0 --
01/14/2022 05:00 651.44 0.00 25.6 94.0 --
01/14/2022 04:00 651.44 0.00 24.8 96.0 --
01/14/2022 03:00 651.44 0.00 23.7 98.0 --
01/14/2022 02:00 651.44 0.00 22.1 98.0 --
01/14/2022 01:00 651.44 0.00 22.0 98.0 --
01/14/2022 00:00 651.44 0.00 22.3 97.0 --
01/13/2022 23:00 651.44 0.00 22.9 96.0 --
01/13/2022 22:00 651.44 0.00 24.0 96.0 --
01/13/2022 21:00 651.45 0.00 23.6 94.0 --
01/13/2022 20:00 651.45 0.00 24.9 89.0 --
01/13/2022 19:00 651.45 0.00 27.5 87.0 --
01/13/2022 18:00 651.45 0.00 29.2 86.0 --
01/13/2022 17:00 651.44 0.00 29.2 86.0 --
01/13/2022 16:00 651.45 0.00 31.2 79.0 --
01/13/2022 15:00 651.44 0.00 32.9 71.0 --
01/13/2022 14:00 651.44 0.00 32.2 71.0 --
01/13/2022 13:00 651.45 0.00 31.0 73.0 --
01/13/2022 12:00 651.45 0.00 30.4 68.0 --
01/13/2022 11:00 651.45 0.00 30.0 70.0 --
01/13/2022 10:00 651.45 0.00 27.7 74.0 --
01/13/2022 09:00 651.44 0.00 26.3 82.0 --
01/13/2022 08:00 651.46 0.00 25.6 83.0 --
01/13/2022 07:00 651.46 0.00 25.4 85.0 --
01/13/2022 06:00 651.46 0.00 24.9 85.0 --
01/13/2022 05:00 651.45 0.00 24.6 81.0 --
01/13/2022 04:00 651.44 0.00 24.6 81.0 --
01/13/2022 03:00 651.45 0.00 23.7 79.0 --
01/13/2022 02:00 651.46 0.00 24.9 74.0 --
01/13/2022 01:00 651.46 0.00 26.3 73.0 --
01/13/2022 00:00 651.45 0.00 27.3 68.0 --
01/12/2022 23:00 651.46 0.00 27.3 66.0 --
01/12/2022 22:00 651.46 0.00 29.4 58.0 --
01/12/2022 21:00 651.46 0.00 29.0 60.0 --
01/12/2022 20:00 651.46 0.00 28.4 60.0 --
01/12/2022 19:00 651.45 0.00 29.0 56.0 --
01/12/2022 18:00 651.46 0.00 29.0 55.0 --
01/12/2022 17:00 651.47 0.00 29.0 55.0 --
01/12/2022 16:00 651.47 0.00 29.2 52.0 --
01/12/2022 15:00 651.46 0.00 28.8 50.0 --
01/12/2022 14:00 651.44 0.00 28.4 48.0 --
01/12/2022 13:00 651.47 0.00 26.8 48.0 --
01/12/2022 12:00 651.47 0.00 25.1 50.0 --
01/12/2022 11:00 651.48 0.00 20.0 55.0 --
01/12/2022 10:00 651.48 0.00 12.0 69.0 --
01/12/2022 09:00 651.47 0.00 6.4 74.0 --
01/12/2022 08:00 651.48 0.00 10.9 69.0 --
01/12/2022 07:00 651.49 0.00 2.0 78.0 --
01/12/2022 06:00 651.50 0.00 3.3 72.0 --
01/12/2022 05:00 651.49 0.00 1.6 75.0 --
01/12/2022 04:00 651.49 0.00 0.0 76.0 --
01/12/2022 03:00 651.49 0.00 -0.8 73.0 --
01/12/2022 02:00 651.50 0.00 -3.3 73.0 --
01/12/2022 01:00 651.51 0.00 -4.6 74.0 --
01/12/2022 00:00 651.51 0.00 -6.8 75.0 --
01/11/2022 23:00 651.52 0.00 -6.9 73.0 --
01/11/2022 22:00 651.52 0.00 -5.9 72.0 --
01/11/2022 21:00 651.51 0.00 -6.1 69.0 --
01/11/2022 20:00 651.51 0.00 -4.2 65.0 --
01/11/2022 19:00 651.52 0.00 -2.0 60.0 --
01/11/2022 18:00 651.52 0.00 1.3 48.0 --
01/11/2022 17:00 651.53 0.00 3.5 42.0 --
01/11/2022 16:00 651.53 0.00 5.7 38.0 --
01/11/2022 15:00 651.54 0.00 6.0 34.0 --
01/11/2022 14:00 651.52 0.00 4.8 35.0 --
01/11/2022 13:00 651.54 0.00 3.9 39.0 --
01/11/2022 12:00 651.54 0.00 2.1 40.0 --
01/11/2022 11:00 651.53 0.00 1.3 44.0 --
01/11/2022 10:00 651.54 0.00 -1.6 47.0 --
01/11/2022 09:00 651.54 0.00 -1.5 53.0 --
01/11/2022 08:00 651.54 0.00 -2.0 56.0 --
01/11/2022 07:00 651.55 0.00 -0.6 57.0 --
01/11/2022 06:00 651.56 0.00 1.1 62.0 --
01/11/2022 05:00 651.55 0.00 3.1 64.0 --
01/11/2022 04:00 651.57 0.00 5.5 68.0 --
01/11/2022 03:00 651.57 0.00 7.8 69.0 --
01/11/2022 02:00 651.56 0.00 10.5 79.0 --
01/11/2022 01:00 651.56 0.00 11.3 85.0 --
01/11/2022 00:00 651.56 0.00 15.3 88.0 --
01/10/2022 23:00 651.56 0.00 15.0 84.0 --
01/10/2022 22:00 651.56 0.00 13.5 78.0 --
01/10/2022 21:00 651.57 0.00 15.4 72.0 --
01/10/2022 20:00 651.57 0.00 16.8 78.0 --
01/10/2022 19:00 651.56 0.00 17.3 74.0 --
01/10/2022 18:00 651.57 0.00 18.3 61.0 --
01/10/2022 17:00 651.57 0.00 19.4 52.0 --
01/10/2022 16:00 651.57 0.00 21.1 44.0 --
01/10/2022 15:00 651.58 0.00 20.5 47.0 --
01/10/2022 14:00 651.59 0.00 22.2 39.0 --
01/10/2022 13:00 651.59 0.00 22.0 36.0 --
01/10/2022 12:00 651.59 0.00 22.1 37.0 --
01/10/2022 11:00 651.57 0.00 21.1 38.0 --
01/10/2022 10:00 651.58 0.00 20.4 38.0 --
01/10/2022 09:00 651.59 0.00 20.3 39.0 --
01/10/2022 08:00 651.58 0.00 20.0 43.0 --
01/10/2022 07:00 651.59 0.00 21.4 42.0 --
01/10/2022 06:00 651.56 0.00 23.4 40.0 --
01/10/2022 05:00 651.57 0.00 25.3 42.0 --
01/10/2022 04:00 651.57 0.00 26.8 44.0 --
01/10/2022 03:00 651.61 0.00 29.4 44.0 --
01/10/2022 02:00 651.60 0.00 31.3 51.0 --
01/10/2022 01:00 651.62 0.01 34.9 58.0 --
01/10/2022 00:00 651.61 0.01 35.9 65.0 --
01/09/2022 23:00 651.57 0.04 36.4 85.0 --
01/09/2022 22:00 651.59 0.05 35.4 93.0 --
01/09/2022 21:00 651.59 0.08 36.3 87.0 --
01/09/2022 20:00 651.58 0.01 36.2 85.0 --
01/09/2022 19:00 651.59 0.01 35.4 86.0 --
01/09/2022 18:00 651.61 0.00 35.0 85.0 --
01/09/2022 17:00 651.61 0.00 34.2 85.0 --
01/09/2022 16:00 651.58 0.00 33.7 85.0 --
01/09/2022 15:00 651.59 0.00 33.3 85.0 --
01/09/2022 14:00 651.60 0.00 32.9 83.0 --
01/09/2022 13:00 651.58 0.00 32.1 82.0 --
01/09/2022 12:00 651.61 0.00 31.1 83.0 --
01/09/2022 11:00 651.59 0.00 30.6 72.0 --
01/09/2022 10:00 651.59 0.00 30.1 64.0 --
01/09/2022 09:00 651.60 0.00 28.5 63.0 --
01/09/2022 08:00 651.59 0.00 27.8 57.0 --
01/09/2022 07:00 651.60 0.00 27.4 46.0 --
01/09/2022 06:00 651.61 0.00 26.1 45.0 --
01/09/2022 05:00 651.61 0.00 24.1 49.0 --
01/09/2022 04:00 651.61 0.00 22.9 52.0 --
01/09/2022 03:00 651.62 0.00 21.0 59.0 --
01/09/2022 02:00 651.62 0.00 12.7 85.0 --
01/09/2022 01:00 651.62 0.00 9.7 83.0 --
01/09/2022 00:00 651.62 0.00 7.9 85.0 --
01/08/2022 23:00 651.64 0.00 6.2 86.0 --
01/08/2022 22:00 651.64 0.00 4.8 87.0 --
01/08/2022 21:00 651.64 0.00 6.2 86.0 --
01/08/2022 20:00 651.65 0.00 6.2 84.0 --
01/08/2022 19:00 651.63 0.00 8.5 82.0 --
01/08/2022 18:00 651.64 0.00 11.7 74.0 --
01/08/2022 17:00 651.63 0.00 15.7 63.0 --
01/08/2022 16:00 651.64 0.00 21.7 36.0 --
01/08/2022 15:00 651.63 0.00 22.6 35.0 --
01/08/2022 14:00 651.64 0.00 23.8 36.0 --
01/08/2022 13:00 651.66 0.00 22.2 40.0 --
01/08/2022 12:00 651.67 0.00 20.3 46.0 --
01/08/2022 11:00 651.65 0.00 16.9 52.0 --
01/08/2022 10:00 651.66 0.00 13.6 58.0 --
01/08/2022 09:00 651.66 0.00 11.9 61.0 --
01/08/2022 08:00 651.66 0.00 10.8 67.0 --
01/08/2022 07:00 651.66 0.00 11.1 65.0 --
01/08/2022 06:00 651.65 0.00 11.8 63.0 --
01/08/2022 05:00 651.65 0.00 12.9 64.0 --
01/08/2022 04:00 651.66 0.00 14.4 65.0 --
01/08/2022 03:00 651.67 0.00 15.2 66.0 --
01/08/2022 02:00 651.68 0.00 16.9 64.0 --
01/08/2022 01:00 651.70 0.00 17.3 65.0 --
01/08/2022 00:00 651.67 0.00 17.1 67.0 --
01/07/2022 23:00 651.70 0.00 18.3 63.0 --
01/07/2022 22:00 651.68 0.00 20.3 59.0 --
01/07/2022 21:00 651.68 0.00 22.3 69.0 --
01/07/2022 20:00 651.68 0.00 24.2 68.0 --
01/07/2022 19:00 651.68 0.00 24.8 83.0 --
01/07/2022 18:00 651.70 0.00 25.7 73.0 --
01/07/2022 17:00 651.69 0.00 26.4 69.0 --
01/07/2022 16:00 651.70 0.00 27.1 75.0 --
01/07/2022 15:00 651.69 0.00 27.3 77.0 --
01/07/2022 14:00 651.71 0.00 27.0 83.0 --
01/07/2022 13:00 651.71 0.00 26.3 95.0 --
01/07/2022 12:00 651.72 0.00 25.8 98.0 --
01/07/2022 11:00 651.71 0.00 25.4 99.0 --
01/07/2022 10:00 651.71 0.00 25.3 99.0 --
01/07/2022 09:00 651.71 0.00 24.9 98.0 --
01/07/2022 08:00 651.69 0.00 24.4 98.0 --
01/07/2022 07:00 651.69 0.00 24.3 97.0 --
01/07/2022 06:00 651.69 0.00 24.3 96.0 --
01/07/2022 05:00 651.69 0.00 25.1 91.0 --
01/07/2022 04:00 651.69 0.00 26.8 75.0 --
01/07/2022 03:00 651.69 0.00 26.6 75.0 --
01/07/2022 02:00 651.70 0.00 27.0 73.0 --
01/07/2022 01:00 651.69 0.00 27.6 69.0 --
01/07/2022 00:00 651.70 0.00 27.1 72.0 --
01/06/2022 23:00 651.71 0.00 27.5 71.0 --
01/06/2022 22:00 651.71 0.00 27.8 68.0 --
01/06/2022 21:00 651.71 0.00 28.5 62.0 --
01/06/2022 20:00 651.71 0.00 27.8 69.0 --
01/06/2022 19:00 651.72 0.00 29.1 58.0 --
01/06/2022 18:00 651.72 0.00 29.6 56.0 --
01/06/2022 17:00 651.71 0.00 29.9 54.0 --
01/06/2022 16:00 651.72 0.00 31.3 50.0 --
01/06/2022 15:00 651.71 0.00 32.7 49.0 --
01/06/2022 14:00 651.73 0.00 32.6 51.0 --
01/06/2022 13:00 651.72 0.00 32.0 50.0 --
01/06/2022 12:00 651.73 0.00 32.0 51.0 --
01/06/2022 11:00 651.74 0.00 32.5 49.0 --
01/06/2022 10:00 651.75 0.00 32.6 51.0 --
01/06/2022 09:00 651.75 0.00 32.2 51.0 --
01/06/2022 08:00 651.74 0.00 32.4 59.0 --
01/06/2022 07:00 651.74 0.00 32.8 74.0 --
01/06/2022 06:00 651.75 0.00 33.6 95.0 --
01/06/2022 05:00 651.74 0.00 27.6 100.0 --
01/06/2022 04:00 651.75 0.00 29.2 100.0 --
01/06/2022 03:00 651.74 0.00 29.7 100.0 --
01/06/2022 02:00 651.75 0.00 29.6 100.0 --
01/06/2022 01:00 651.75 0.00 29.6 100.0 --
01/06/2022 00:00 651.76 0.00 29.8 100.0 --
01/05/2022 23:00 651.76 0.00 30.3 100.0 --
01/05/2022 22:00 651.76 0.00 32.1 100.0 --
01/05/2022 21:00 651.75 0.00 33.2 100.0 --
01/05/2022 20:00 651.75 0.00 33.9 100.0 --
01/05/2022 19:00 651.75 0.00 35.2 100.0 --
01/05/2022 18:00 651.76 0.00 38.0 100.0 --
01/05/2022 17:00 651.76 0.00 36.1 100.0 --
01/05/2022 16:00 651.76 0.00 39.0 100.0 --
01/05/2022 15:00 651.77 0.00 39.8 100.0 --
01/05/2022 14:00 651.78 0.02 39.3 100.0 --
01/05/2022 13:00 651.77 0.01 31.9 100.0 --
01/05/2022 12:00 651.78 0.00 32.2 100.0 --
01/05/2022 11:00 651.77 0.00 29.2 100.0 --
01/05/2022 10:00 651.78 0.00 26.0 100.0 --
01/05/2022 09:00 651.78 0.00 23.6 94.0 --
01/05/2022 08:00 651.78 0.00 30.6 88.0 --
01/05/2022 07:00 651.79 0.00 28.0 87.0 --
01/05/2022 06:00 651.80 0.00 25.3 83.0 --
01/05/2022 05:00 651.80 0.00 19.9 96.0 --
01/05/2022 04:00 651.81 0.00 17.9 96.0 --
01/05/2022 03:00 651.82 0.00 17.8 94.0 --
01/05/2022 02:00 651.82 0.00 17.5 93.0 --
01/05/2022 01:00 651.83 0.00 17.0 93.0 --
01/05/2022 00:00 651.82 0.00 17.9 91.0 --
01/04/2022 23:00 651.84 0.00 17.7 90.0 --
01/04/2022 22:00 651.83 0.00 18.5 86.0 --
01/04/2022 21:00 651.84 0.00 19.5 84.0 --
01/04/2022 20:00 651.84 0.00 20.4 80.0 --
01/04/2022 19:00 651.84 0.00 21.5 77.0 --
01/04/2022 18:00 651.84 0.00 23.4 70.0 --
01/04/2022 17:00 651.85 0.00 25.7 60.0 --
01/04/2022 16:00 651.84 0.00 28.3 51.0 --
01/04/2022 15:00 651.84 0.00 28.9 47.0 --
01/04/2022 14:00 651.85 0.00 28.1 45.0 --
01/04/2022 13:00 651.86 0.00 27.0 44.0 --
01/04/2022 12:00 651.86 0.00 24.4 44.0 --
01/04/2022 11:00 651.86 0.00 20.9 45.0 --
01/04/2022 10:00 651.87 0.00 16.3 50.0 --
01/04/2022 09:00 651.87 0.00 12.5 55.0 --
01/04/2022 08:00 651.88 0.00 9.1 65.0 --
01/04/2022 07:00 651.89 0.00 9.0 63.0 --
01/04/2022 06:00 651.89 0.00 9.4 55.0 --
01/04/2022 05:00 651.90 0.00 9.3 56.0 --
01/04/2022 04:00 651.91 0.00 10.0 56.0 --
01/04/2022 03:00 651.92 0.00 10.7 52.0 --
01/04/2022 02:00 651.93 0.00 11.6 53.0 --
01/04/2022 01:00 651.93 0.00 12.2 54.0 --
01/04/2022 00:00 651.94 0.00 12.9 51.0 --
01/03/2022 23:00 651.95 0.00 14.0 54.0 --
01/03/2022 22:00 651.95 0.00 14.9 57.0 --
01/03/2022 21:00 651.95 0.00 15.3 60.0 --
01/03/2022 20:00 651.95 0.00 15.6 57.0 --
01/03/2022 19:00 651.95 0.00 16.6 55.0 --
01/03/2022 18:00 651.96 0.00 17.0 54.0 --
01/03/2022 17:00 651.97 0.00 17.6 54.0 --
01/03/2022 16:00 651.96 0.00 18.7 56.0 --
01/03/2022 15:00 651.97 0.00 19.7 58.0 --
01/03/2022 14:00 651.97 0.00 19.1 57.0 --
01/03/2022 13:00 651.96 0.00 18.2 57.0 --
01/03/2022 12:00 651.97 0.00 17.9 59.0 --
01/03/2022 11:00 651.97 0.00 17.6 56.0 --
01/03/2022 10:00 651.96 0.00 17.6 58.0 --
01/03/2022 09:00 651.96 0.00 17.3 61.0 --
01/03/2022 08:00 651.96 0.00 17.4 66.0 --
01/03/2022 07:00 651.97 0.00 18.0 67.0 --
01/03/2022 06:00 651.95 0.00 18.7 68.0 --
01/03/2022 05:00 651.95 0.00 19.6 68.0 --
01/03/2022 04:00 651.94 0.00 19.9 71.0 --
01/03/2022 03:00 651.94 0.00 20.5 73.0 --
01/03/2022 02:00 651.92 0.00 21.8 72.0 --
01/03/2022 01:00 651.93 0.00 23.2 71.0 --
01/03/2022 00:00 651.93 0.00 24.2 72.0 --
01/02/2022 23:00 651.92 0.00 25.8 75.0 --
01/02/2022 22:00 651.91 0.00 27.3 73.0 --
01/02/2022 21:00 651.91 0.00 29.3 78.0 --
01/02/2022 20:00 651.91 0.00 30.8 78.0 --
01/02/2022 19:00 651.90 0.00 32.1 82.0 --
01/02/2022 18:00 651.88 0.00 32.9 89.0 --
01/02/2022 17:00 651.88 0.00 33.8 94.0 --
01/02/2022 16:00 651.88 0.00 34.3 99.0 --
01/02/2022 15:00 651.88 0.00 35.2 100.0 --
01/02/2022 14:00 651.87 0.00 35.8 100.0 --
01/02/2022 13:00 651.86 0.01 36.1 100.0 --
01/02/2022 12:00 651.84 0.00 37.7 100.0 --
01/02/2022 11:00 651.84 0.01 35.9 100.0 --
01/02/2022 10:00 651.83 0.00 35.1 100.0 --
01/02/2022 09:00 651.82 0.02 33.9 100.0 --
01/02/2022 08:00 651.81 0.00 34.1 100.0 --
01/02/2022 07:00 651.81 0.01 34.0 100.0 --
01/02/2022 06:00 651.81 0.03 33.7 100.0 --
01/02/2022 05:00 651.80 0.00 34.4 100.0 --
01/02/2022 04:00 651.80 0.01 34.5 100.0 --
01/02/2022 03:00 651.79 0.02 34.3 100.0 --
01/02/2022 02:00 651.78 0.00 33.9 100.0 --
01/02/2022 01:00 651.78 0.00 33.4 100.0 --
01/02/2022 00:00 651.77 0.01 33.5 100.0 --
01/01/2022 23:00 651.77 0.00 33.6 100.0 --
01/01/2022 22:00 651.77 0.00 33.3 100.0 --
01/01/2022 21:00 651.76 0.00 34.5 100.0 --
01/01/2022 20:00 651.76 0.00 33.9 100.0 --
01/01/2022 19:00 651.75 0.00 33.8 100.0 --
01/01/2022 18:00 651.74 0.00 34.4 100.0 --
01/01/2022 17:00 651.75 0.00 34.6 100.0 --
01/01/2022 16:00 651.74 0.00 35.1 100.0 --
01/01/2022 15:00 651.74 0.00 35.3 100.0 --
01/01/2022 14:00 651.74 0.01 35.3 100.0 --
01/01/2022 13:00 651.73 0.00 34.8 100.0 --
01/01/2022 12:00 651.73 0.01 34.8 100.0 --
01/01/2022 11:00 651.73 0.02 34.4 100.0 --
01/01/2022 10:00 651.72 0.02 34.2 100.0 --
01/01/2022 09:00 651.72 0.01 33.2 100.0 --
01/01/2022 08:00 651.72 0.01 33.0 100.0 --
01/01/2022 07:00 651.71 0.00 32.9 100.0 --
01/01/2022 06:00 651.70 0.00 32.9 100.0 --
01/01/2022 05:00 651.70 0.00 32.7 100.0 --
01/01/2022 04:00 651.69 0.00 33.1 100.0 --
01/01/2022 03:00 651.70 0.00 33.1 100.0 --
01/01/2022 02:00 651.70 0.00 33.3 100.0 --
01/01/2022 01:00 651.70 0.00 33.6 100.0 --
01/01/2022 00:00 651.69 0.00 33.4 100.0 --
12/31/2021 23:00 651.70 0.00 33.1 100.0 --
12/31/2021 22:00 651.69 0.00 33.3 100.0 --
12/31/2021 21:00 651.69 0.00 33.6 100.0 --
12/31/2021 20:00 651.69 0.00 33.9 100.0 --
12/31/2021 19:00 651.69 0.00 34.2 100.0 --
12/31/2021 18:00 651.68 0.00 34.7 100.0 --
12/31/2021 17:00 651.69 0.00 35.8 100.0 --
12/31/2021 16:00 651.68 0.00 35.0 100.0 --
12/31/2021 15:00 651.68 0.00 36.6 100.0 --
12/31/2021 14:00 651.67 0.00 36.6 100.0 --
12/31/2021 13:00 651.67 0.01 36.5 100.0 --
12/31/2021 12:00 651.67 0.01 36.0 100.0 --
12/31/2021 11:00 651.67 0.00 34.9 100.0 --
12/31/2021 10:00 651.66 0.00 34.3 100.0 --
12/31/2021 09:00 651.67 0.00 33.1 100.0 --
12/31/2021 08:00 651.67 0.00 32.8 100.0 --
12/31/2021 07:00 651.66 0.00 32.6 100.0 --
12/31/2021 06:00 651.67 0.00 32.6 100.0 --
12/31/2021 05:00 651.66 0.03 32.6 100.0 --
12/31/2021 04:00 651.65 0.04 32.6 100.0 --
12/31/2021 03:00 651.65 0.00 32.6 100.0 --
12/31/2021 02:00 651.66 0.00 32.6 100.0 --
12/31/2021 01:00 651.65 0.00 33.1 100.0 --
12/31/2021 00:00 651.66 0.01 32.4 100.0 --
12/30/2021 23:00 651.65 0.00 33.0 100.0 --
12/30/2021 22:00 651.66 0.00 32.9 100.0 --
12/30/2021 21:00 651.65 0.00 32.8 100.0 --
12/30/2021 20:00 651.64 0.00 33.1 100.0 --
12/30/2021 19:00 651.65 0.00 33.4 100.0 --
12/30/2021 18:00 651.65 0.00 33.7 100.0 --
12/30/2021 17:00 651.65 0.00 34.3 100.0 --
12/30/2021 16:00 651.65 0.00 34.9 100.0 --
12/30/2021 15:00 651.64 0.02 36.1 100.0 --
12/30/2021 14:00 651.66 0.04 37.7 100.0 --
12/30/2021 13:00 651.65 0.02 36.5 100.0 --
12/30/2021 12:00 651.64 0.03 35.5 100.0 --
12/30/2021 11:00 651.65 0.01 33.6 100.0 --
12/30/2021 10:00 651.64 0.00 33.4 100.0 --
12/30/2021 09:00 651.65 0.00 32.6 100.0 --
12/30/2021 08:00 651.66 0.00 32.1 100.0 --
12/30/2021 07:00 651.65 0.00 32.0 100.0 --
12/30/2021 06:00 651.64 0.00 32.0 100.0 --
12/30/2021 05:00 651.65 0.00 31.9 100.0 --
12/30/2021 04:00 651.65 0.00 31.7 100.0 --
12/30/2021 03:00 651.66 0.00 31.9 100.0 --
12/30/2021 02:00 651.65 0.00 31.9 100.0 --
12/30/2021 01:00 651.66 0.00 31.9 100.0 --
12/30/2021 00:00 651.65 0.00 32.0 100.0 --
12/29/2021 23:00 651.66 0.00 32.0 100.0 --
12/29/2021 22:00 651.65 0.00 31.9 100.0 --
12/29/2021 21:00 651.65 0.00 32.0 100.0 --
12/29/2021 20:00 651.65 0.00 31.9 100.0 --
12/29/2021 19:00 651.65 0.00 32.0 100.0 --
12/29/2021 18:00 651.66 0.00 32.4 100.0 --
12/29/2021 17:00 651.65 0.00 32.9 100.0 --
12/29/2021 16:00 651.66 0.00 33.6 100.0 --
12/29/2021 15:00 651.65 0.00 34.4 93.0 --
12/29/2021 14:00 651.66 0.02 35.9 83.0 --
12/29/2021 13:00 651.65 0.00 36.4 79.0 --
12/29/2021 12:00 651.66 0.00 35.7 74.0 --
12/29/2021 11:00 651.65 0.00 34.6 80.0 --
12/29/2021 10:00 651.65 0.00 33.1 100.0 --
12/29/2021 09:00 651.65 0.00 31.4 100.0 --
12/29/2021 08:00 651.65 0.00 30.6 100.0 --
12/29/2021 07:00 651.65 0.00 31.0 100.0 --
12/29/2021 06:00 651.65 0.00 31.1 100.0 --
12/29/2021 05:00 651.66 0.00 31.3 100.0 --
12/29/2021 04:00 651.65 0.00 31.6 100.0 --
12/29/2021 03:00 651.66 0.00 31.5 100.0 --
12/29/2021 02:00 651.66 0.00 31.6 100.0 --
12/29/2021 01:00 651.65 0.00 31.6 100.0 --
12/29/2021 00:00 651.66 0.00 31.7 100.0 --
12/28/2021 23:00 651.65 0.00 31.6 100.0 --
12/28/2021 22:00 651.64 0.00 31.7 100.0 --
12/28/2021 21:00 651.65 0.00 31.9 100.0 --
12/28/2021 20:00 651.64 0.00 32.1 100.0 --
12/28/2021 19:00 651.66 0.00 32.0 100.0 --
12/28/2021 18:00 651.65 0.00 32.0 100.0 --
12/28/2021 17:00 651.66 0.00 31.9 100.0 --
12/28/2021 16:00 651.66 0.00 33.3 98.0 --
12/28/2021 15:00 651.66 0.00 34.3 100.0 --
12/28/2021 14:00 651.65 0.00 35.0 94.0 --
12/28/2021 13:00 651.66 0.00 37.1 86.0 --
12/28/2021 12:00 651.66 0.00 35.8 94.0 --
12/28/2021 11:00 651.67 0.01 32.6 100.0 --
12/28/2021 10:00 651.66 0.00 30.1 100.0 --
12/28/2021 09:00 651.67 0.00 29.1 100.0 --
12/28/2021 08:00 651.66 0.00 28.7 100.0 --
12/28/2021 07:00 651.67 0.00 28.3 100.0 --
12/28/2021 06:00 651.66 0.00 27.8 100.0 --
12/28/2021 05:00 651.67 0.00 27.8 100.0 --
12/28/2021 04:00 651.66 0.00 27.6 100.0 --
12/28/2021 03:00 651.67 0.00 27.0 100.0 --
12/28/2021 02:00 651.67 0.00 27.1 100.0 --
12/28/2021 01:00 651.67 0.00 27.0 100.0 --
12/28/2021 00:00 651.68 0.00 27.1 100.0 --
12/27/2021 23:00 651.68 0.00 27.2 100.0 --
12/27/2021 22:00 651.68 0.00 27.3 100.0 --
12/27/2021 21:00 651.69 0.00 27.4 100.0 --
12/27/2021 20:00 651.68 0.00 27.3 100.0 --
12/27/2021 19:00 651.70 0.00 27.3 100.0 --
12/27/2021 18:00 651.69 0.00 27.6 100.0 --
12/27/2021 17:00 651.69 0.00 28.2 97.0 --
12/27/2021 16:00 651.70 0.00 28.6 94.0 --
12/27/2021 15:00 651.70 0.00 28.8 91.0 --
12/27/2021 14:00 651.69 0.00 29.0 85.0 --
12/27/2021 13:00 651.70 0.00 28.3 85.0 --
12/27/2021 12:00 651.70 0.00 27.1 86.0 --
12/27/2021 11:00 651.71 0.00 26.6 86.0 --
12/27/2021 10:00 651.72 0.00 26.1 86.0 --
12/27/2021 09:00 651.72 0.00 25.3 86.0 --
12/27/2021 08:00 651.72 0.00 24.4 87.0 --
12/27/2021 07:00 651.71 0.00 25.6 85.0 --
12/27/2021 06:00 651.71 0.00 26.1 85.0 --
12/27/2021 05:00 651.72 0.00 26.8 84.0 --
12/27/2021 04:00 651.73 0.00 27.8 83.0 --
12/27/2021 03:00 651.74 0.00 28.1 83.0 --
12/27/2021 02:00 651.73 0.00 28.3 80.0 --
12/27/2021 01:00 651.71 0.00 28.4 80.0 --
12/27/2021 00:00 651.73 0.00 28.9 82.0 --
12/26/2021 23:00 651.73 0.00 29.1 82.0 --
12/26/2021 22:00 651.75 0.00 29.1 87.0 --
12/26/2021 21:00 651.72 0.00 29.9 85.0 --
12/26/2021 20:00 651.74 0.00 30.7 83.0 --
12/26/2021 19:00 651.74 0.00 30.8 85.0 --
12/26/2021 18:00 651.74 0.00 31.0 89.0 --
12/26/2021 17:00 651.74 0.03 31.4 89.0 --
12/26/2021 16:00 651.73 0.04 31.4 91.0 --
12/26/2021 15:00 651.74 0.02 31.7 91.0 --
12/26/2021 14:00 651.74 0.01 31.5 89.0 --
12/26/2021 13:00 651.75 0.00 31.9 89.0 --
12/26/2021 12:00 651.73 0.00 31.2 88.0 --
12/26/2021 11:00 651.75 0.00 30.1 88.0 --
12/26/2021 10:00 651.75 0.00 30.1 88.0 --
12/26/2021 09:00 651.74 0.00 31.3 91.0 --
12/26/2021 08:00 651.74 0.00 31.6 100.0 --
12/26/2021 07:00 651.74 0.00 31.3 100.0 --
12/26/2021 06:00 651.75 0.00 31.6 100.0 --
12/26/2021 05:00 651.75 0.00 31.9 100.0 --
12/26/2021 04:00 651.76 0.00 31.9 100.0 --
12/26/2021 03:00 651.76 0.00 31.7 100.0 --
12/26/2021 02:00 651.74 0.00 31.7 100.0 --
12/26/2021 01:00 651.74 0.00 31.7 100.0 --
12/26/2021 00:00 651.73 0.00 31.2 100.0 --
12/25/2021 23:00 651.73 0.00 30.3 100.0 --
12/25/2021 22:00 651.74 0.00 30.2 100.0 --
12/25/2021 21:00 651.74 0.00 29.3 100.0 --
12/25/2021 20:00 651.73 0.00 29.4 100.0 --
12/25/2021 19:00 651.74 0.00 29.0 100.0 --
12/25/2021 18:00 651.74 0.00 29.0 100.0 --
12/25/2021 17:00 651.74 0.00 29.9 100.0 --
12/25/2021 16:00 651.74 0.00 30.4 100.0 --
12/25/2021 15:00 651.74 0.00 30.2 100.0 --
12/25/2021 14:00 651.75 0.00 30.5 100.0 --
12/25/2021 13:00 651.74 0.00 29.4 100.0 --
12/25/2021 12:00 651.74 0.00 28.8 100.0 --
12/25/2021 11:00 651.73 0.00 28.5 100.0 --
12/25/2021 10:00 651.72 0.00 27.7 100.0 --
12/25/2021 09:00 651.73 0.00 27.5 100.0 --
12/25/2021 08:00 651.73 0.00 26.4 100.0 --
12/25/2021 07:00 651.73 0.00 25.7 99.0 --
12/25/2021 06:00 651.73 0.00 25.3 92.0 --
12/25/2021 05:00 651.73 0.00 25.5 89.0 --
12/25/2021 04:00 651.74 0.00 25.1 89.0 --
12/25/2021 03:00 651.75 0.00 25.3 87.0 --
12/25/2021 02:00 651.77 0.00 25.0 86.0 --
12/25/2021 01:00 651.76 0.00 25.6 83.0 --
12/25/2021 00:00 651.76 0.00 25.6 82.0 --
12/24/2021 23:00 651.76 0.00 25.7 81.0 --
12/24/2021 22:00 651.77 0.00 25.7 80.0 --
12/24/2021 21:00 651.77 0.00 25.8 77.0 --
12/24/2021 20:00 651.77 0.00 25.8 77.0 --
12/24/2021 19:00 651.77 0.00 25.7 76.0 --
12/24/2021 18:00 651.77 0.00 25.6 74.0 --
12/24/2021 17:00 651.78 0.00 26.0 73.0 --
12/24/2021 16:00 651.78 0.00 25.7 71.0 --
12/24/2021 15:00 651.78 0.00 24.9 72.0 --
12/24/2021 14:00 651.79 0.00 24.2 72.0 --
12/24/2021 13:00 651.79 0.00 23.0 73.0 --
12/24/2021 12:00 651.79 0.00 21.9 72.0 --
12/24/2021 11:00 651.79 0.00 20.4 73.0 --
12/24/2021 10:00 651.80 0.00 18.5 74.0 --
12/24/2021 09:00 651.80 0.00 17.5 78.0 --
12/24/2021 08:00 651.80 0.00 16.4 75.0 --
12/24/2021 07:00 651.81 0.00 16.0 74.0 --
12/24/2021 06:00 651.81 0.00 15.2 73.0 --
12/24/2021 05:00 651.81 0.00 15.3 72.0 --
12/24/2021 04:00 651.82 0.00 15.4 72.0 --
12/24/2021 03:00 651.82 0.00 15.8 68.0 --
12/24/2021 02:00 651.83 0.00 15.2 68.0 --
12/24/2021 01:00 651.83 0.00 14.0 67.0 --
12/24/2021 00:00 651.84 0.00 13.7 67.0 --
12/23/2021 23:00 651.83 0.00 13.2 68.0 --
12/23/2021 22:00 651.84 0.00 14.6 61.0 --
12/23/2021 21:00 651.84 0.00 17.4 45.0 --
12/23/2021 20:00 651.83 0.00 17.8 46.0 --
12/23/2021 19:00 651.84 0.00 20.7 38.0 --
12/23/2021 18:00 651.84 0.00 22.2 34.0 --
12/23/2021 17:00 651.84 0.00 23.7 32.0 --
12/23/2021 16:00 651.84 0.00 24.6 31.0 --
12/23/2021 15:00 651.84 0.00 25.1 29.0 --
12/23/2021 14:00 651.80 0.00 24.5 29.0 --
12/23/2021 13:00 651.81 0.00 24.5 30.0 --
12/23/2021 12:00 651.83 0.00 23.2 29.0 --
12/23/2021 11:00 651.82 0.00 21.9 35.0 --
12/23/2021 10:00 651.82 0.00 20.7 40.0 --
12/23/2021 09:00 651.83 0.00 20.3 43.0 --
12/23/2021 08:00 651.80 0.00 20.0 52.0 --
12/23/2021 07:00 651.81 0.00 21.1 57.0 --
12/23/2021 06:00 651.80 0.00 21.8 58.0 --
12/23/2021 05:00 651.79 0.00 23.0 54.0 --
12/23/2021 04:00 651.79 0.00 24.7 54.0 --
12/23/2021 03:00 651.79 0.00 26.3 53.0 --
12/23/2021 02:00 651.77 0.00 27.9 54.0 --
12/23/2021 01:00 651.77 0.00 29.4 56.0 --
12/23/2021 00:00 651.76 0.00 30.0 55.0 --
12/22/2021 23:00 651.76 0.00 30.5 62.0 --
12/22/2021 22:00 651.76 0.00 31.4 60.0 --
12/22/2021 21:00 651.72 0.00 30.8 59.0 --
12/22/2021 20:00 651.71 0.00 31.8 54.0 --
12/22/2021 19:00 651.69 0.01 32.5 53.0 --
12/22/2021 18:00 651.70 0.00 34.3 61.0 --
12/22/2021 17:00 651.69 0.02 36.0 68.0 --
12/22/2021 16:00 651.68 0.03 36.6 73.0 --
12/22/2021 15:00 651.68 0.08 37.4 77.0 --
12/22/2021 14:00 651.65 0.09 38.7 83.0 --
12/22/2021 13:00 651.66 0.03 34.5 100.0 --
12/22/2021 12:00 651.65 0.12 33.0 100.0 --
12/22/2021 11:00 651.62 0.16 32.4 100.0 --
12/22/2021 10:00 651.61 0.13 32.0 100.0 --
12/22/2021 09:00 651.61 0.00 32.0 100.0 --
12/22/2021 08:00 651.59 0.00 30.8 100.0 --
12/22/2021 07:00 651.60 0.00 29.9 100.0 --
12/22/2021 06:00 651.60 0.00 28.7 100.0 --
12/22/2021 05:00 651.59 0.00 28.6 100.0 --
12/22/2021 04:00 651.60 0.00 27.8 100.0 --
12/22/2021 03:00 651.59 0.00 26.1 100.0 --
12/22/2021 02:00 651.59 0.00 24.9 98.0 --
12/22/2021 01:00 651.59 0.00 23.1 99.0 --
12/22/2021 00:00 651.60 0.00 22.7 99.0 --
12/21/2021 23:00 651.60 0.00 23.9 99.0 --
12/21/2021 22:00 651.60 0.00 24.4 96.0 --
12/21/2021 21:00 651.60 0.00 26.1 94.0 --
12/21/2021 20:00 651.61 0.00 26.3 92.0 --
12/21/2021 19:00 651.61 0.00 28.0 89.0 --
12/21/2021 18:00 651.60 0.00 29.0 86.0 --
12/21/2021 17:00 651.61 0.00 29.8 83.0 --
12/21/2021 16:00 651.61 0.00 31.6 79.0 --
12/21/2021 15:00 651.62 0.00 38.6 54.0 --
12/21/2021 14:00 651.63 0.00 39.9 50.0 --
12/21/2021 13:00 651.62 0.00 39.7 52.0 --
12/21/2021 12:00 651.62 0.00 37.7 58.0 --
12/21/2021 11:00 651.63 0.00 34.0 66.0 --
12/21/2021 10:00 651.63 0.00 31.4 69.0 --
12/21/2021 09:00 651.64 0.00 26.4 83.0 --
12/21/2021 08:00 651.63 0.00 24.6 86.0 --
12/21/2021 07:00 651.64 0.00 22.8 89.0 --
12/21/2021 06:00 651.64 0.00 20.9 90.0 --
12/21/2021 05:00 651.65 0.00 19.4 90.0 --
12/21/2021 04:00 651.65 0.00 20.6 87.0 --
12/21/2021 03:00 651.65 0.00 20.8 84.0 --
12/21/2021 02:00 651.66 0.00 22.2 79.0 --
12/21/2021 01:00 651.66 0.00 25.9 63.0 --
12/21/2021 00:00 651.65 0.00 27.3 61.0 --
12/20/2021 23:00 651.66 0.00 27.7 57.0 --
12/20/2021 22:00 651.66 0.00 27.3 61.0 --
12/20/2021 21:00 651.66 0.00 26.1 69.0 --
12/20/2021 20:00 651.67 0.00 25.9 69.0 --
12/20/2021 19:00 651.67 0.00 25.5 72.0 --
12/20/2021 18:00 651.67 0.00 23.0 80.0 --
12/20/2021 17:00 651.68 0.00 24.5 73.0 --
12/20/2021 16:00 651.68 0.00 28.7 48.0 --
12/20/2021 15:00 651.68 0.00 29.8 49.0 --
12/20/2021 14:00 651.68 0.00 28.9 44.0 --
12/20/2021 13:00 651.69 0.01 26.7 47.0 --
12/20/2021 12:00 651.68 0.00 25.5 44.0 --
12/20/2021 11:00 651.68 0.00 22.1 52.0 --
12/20/2021 10:00 651.70 0.00 19.5 60.0 --
12/20/2021 09:00 651.70 0.00 17.1 68.0 --
12/20/2021 08:00 651.70 0.00 14.9 75.0 --
12/20/2021 07:00 651.71 0.00 15.7 73.0 --
12/20/2021 06:00 651.71 0.00 15.6 76.0 --
12/20/2021 05:00 651.71 0.00 14.3 80.0 --
12/20/2021 04:00 651.71 0.00 16.6 75.0 --
12/20/2021 03:00 651.71 0.00 15.9 78.0 --
12/20/2021 02:00 651.71 0.00 17.9 71.0 --
12/20/2021 01:00 651.72 0.00 18.4 70.0 --
12/20/2021 00:00 651.73 0.00 18.2 70.0 --
12/19/2021 23:00 651.72 0.00 19.0 70.0 --
12/19/2021 22:00 651.72 0.00 19.1 70.0 --
12/19/2021 21:00 651.74 0.00 20.2 69.0 --
12/19/2021 20:00 651.74 0.00 21.5 69.0 --
12/19/2021 19:00 651.73 0.00 22.5 66.0 --
12/19/2021 18:00 651.73 0.00 24.2 69.0 --
12/19/2021 17:00 651.74 0.00 25.1 66.0 --
12/19/2021 16:00 651.73 0.00 26.2 66.0 --
12/19/2021 15:00 651.74 0.00 26.8 66.0 --
12/19/2021 14:00 651.74 0.00 27.2 67.0 --
12/19/2021 13:00 651.72 0.00 26.8 69.0 --
12/19/2021 12:00 651.78 0.03 26.9 73.0 --
12/19/2021 11:00 651.73 0.00 27.2 77.0 --
12/19/2021 10:00 651.72 0.00 29.2 83.0 --
12/19/2021 09:00 651.75 0.00 30.5 92.0 --
12/19/2021 08:00 651.75 0.00 28.7 100.0 --
12/19/2021 07:00 651.75 0.00 27.8 100.0 --
12/19/2021 06:00 651.75 0.00 27.5 100.0 --
12/19/2021 05:00 651.76 0.00 27.6 100.0 --
12/19/2021 04:00 651.76 0.00 27.6 100.0 --
12/19/2021 03:00 651.76 0.00 28.0 100.0 --
12/19/2021 02:00 651.75 0.00 28.3 100.0 --
12/19/2021 01:00 651.75 0.00 28.6 100.0 --
12/19/2021 00:00 651.73 0.00 29.3 100.0 --
12/18/2021 23:00 651.73 0.00 29.9 100.0 --
12/18/2021 22:00 651.74 0.00 29.9 100.0 --
12/18/2021 21:00 651.74 0.00 29.6 100.0 --
12/18/2021 20:00 651.73 0.00 29.6 100.0 --
12/18/2021 19:00 651.73 0.00 29.7 100.0 --
12/18/2021 18:00 651.73 0.00 29.9 100.0 --
12/18/2021 17:00 651.73 0.00 29.6 100.0 --
12/18/2021 16:00 651.72 0.00 29.8 100.0 --
12/18/2021 15:00 651.72 0.00 29.9 99.0 --
12/18/2021 14:00 651.71 0.00 29.7 95.0 --
12/18/2021 13:00 651.71 0.00 31.2 77.0 --
12/18/2021 12:00 651.72 0.00 33.9 54.0 --
12/18/2021 11:00 651.71 0.00 33.7 54.0 --
12/18/2021 10:00 651.72 0.00 33.5 55.0 --
12/18/2021 09:00 651.73 0.00 32.4 57.0 --
12/18/2021 08:00 651.72 0.00 32.3 58.0 --
12/18/2021 07:00 651.73 0.00 32.6 58.0 --
12/18/2021 06:00 651.73 0.00 33.0 57.0 --
12/18/2021 05:00 651.74 0.00 33.5 58.0 --
12/18/2021 04:00 651.73 0.00 34.2 57.0 --
12/18/2021 03:00 651.73 0.00 34.8 58.0 --
12/18/2021 02:00 651.72 0.00 35.3 61.0 --
12/18/2021 01:00 651.73 0.00 36.9 59.0 --
12/18/2021 00:00 651.75 0.00 36.0 62.0 --
12/17/2021 23:00 651.73 0.00 37.1 59.0 --
12/17/2021 22:00 651.74 0.00 38.8 53.0 --
12/17/2021 21:00 651.73 0.00 42.2 43.0 --
12/17/2021 20:00 651.73 0.00 43.3 41.0 --
12/17/2021 19:00 651.74 0.00 44.6 39.0 --
12/17/2021 18:00 651.74 0.00 45.3 38.0 --
12/17/2021 17:00 651.75 0.00 46.3 38.0 --
12/17/2021 16:00 651.76 0.00 47.8 37.0 --
12/17/2021 15:00 651.73 0.00 49.0 34.0 --
12/17/2021 14:00 651.75 0.00 49.4 34.0 --
12/17/2021 13:00 651.76 0.00 50.2 31.0 --
12/17/2021 12:00 651.77 0.00 49.3 30.0 --
12/17/2021 11:00 651.77 0.00 48.4 33.0 --
12/17/2021 10:00 651.77 0.00 47.5 36.0 --
12/17/2021 09:00 651.74 0.00 47.1 37.0 --
12/17/2021 08:00 651.75 0.00 47.2 35.0 --
12/17/2021 07:00 651.72 0.00 48.7 29.0 --
12/17/2021 06:00 651.74 0.06 51.8 23.0 --
12/17/2021 05:00 651.75 0.32 54.9 38.0 --
12/17/2021 04:00 651.75 0.00 55.8 63.0 --
12/17/2021 03:00 651.78 0.00 57.1 59.0 --
12/17/2021 02:00 651.77 0.00 56.5 62.0 --
12/17/2021 01:00 651.77 0.00 56.2 62.0 --
12/17/2021 00:00 651.76 0.00 53.3 77.0 --
12/16/2021 23:00 651.75 0.00 42.6 100.0 --
12/16/2021 22:00 651.76 0.00 42.5 100.0 --
12/16/2021 21:00 651.76 0.00 42.9 100.0 --
12/16/2021 20:00 651.76 0.00 42.1 100.0 --
12/16/2021 19:00 651.76 0.00 42.8 100.0 --
12/16/2021 18:00 651.73 0.00 42.0 100.0 --
12/16/2021 17:00 651.75 0.00 42.8 100.0 --
12/16/2021 16:00 651.75 0.00 43.8 100.0 --
12/16/2021 15:00 651.74 0.00 45.2 100.0 --
12/16/2021 14:00 651.76 0.00 43.9 100.0 --
12/16/2021 13:00 651.75 0.00 40.3 100.0 --
12/16/2021 12:00 651.74 0.00 38.9 100.0 --
12/16/2021 11:00 651.76 0.00 38.6 100.0 --
12/16/2021 10:00 651.76 0.00 37.5 100.0 --
12/16/2021 09:00 651.76 0.00 35.9 100.0 --
12/16/2021 08:00 651.76 0.00 35.2 100.0 --
12/16/2021 07:00 651.74 0.01 35.0 100.0 --
12/16/2021 06:00 651.75 0.04 34.8 100.0 --
12/16/2021 05:00 651.75 0.01 34.2 100.0 --
12/16/2021 04:00 651.76 0.04 34.1 100.0 --
12/16/2021 03:00 651.75 0.01 34.0 100.0 --
12/16/2021 02:00 651.75 0.06 34.0 100.0 --
12/16/2021 01:00 651.75 0.02 34.8 100.0 --
12/16/2021 00:00 651.76 0.03 35.3 100.0 --
12/15/2021 23:00 651.74 0.00 34.6 100.0 --
12/15/2021 22:00 651.75 0.01 34.1 95.0 --
12/15/2021 21:00 651.76 0.00 34.1 83.0 --
12/15/2021 20:00 651.77 0.00 35.0 72.0 --
12/15/2021 19:00 651.76 0.00 36.7 51.0 --
12/15/2021 18:00 651.77 0.00 35.4 51.0 --
12/15/2021 17:00 651.78 0.00 35.9 46.0 --
12/15/2021 16:00 651.78 0.00 37.8 39.0 --
12/15/2021 15:00 651.79 0.00 38.9 32.0 --
12/15/2021 14:00 651.78 0.00 39.5 30.0 --
12/15/2021 13:00 651.79 0.00 39.0 35.0 --
12/15/2021 12:00 651.80 0.00 37.8 35.0 --
12/15/2021 11:00 651.79 0.00 35.4 46.0 --
12/15/2021 10:00 651.81 0.00 31.9 53.0 --
12/15/2021 09:00 651.82 0.00 30.5 57.0 --
12/15/2021 08:00 651.83 0.00 28.6 65.0 --
12/15/2021 07:00 651.82 0.00 28.8 64.0 --
12/15/2021 06:00 651.83 0.00 29.4 63.0 --
12/15/2021 05:00 651.83 0.00 27.8 66.0 --
12/15/2021 04:00 651.84 0.00 28.1 63.0 --
12/15/2021 03:00 651.85 0.00 27.8 65.0 --
12/15/2021 02:00 651.85 0.00 29.1 59.0 --
12/15/2021 01:00 651.86 0.00 29.5 58.0 --
12/15/2021 00:00 651.86 0.00 29.2 63.0 --
12/14/2021 23:00 651.86 0.00 28.9 64.0 --
12/14/2021 22:00 651.86 0.00 28.4 64.0 --
12/14/2021 21:00 651.87 0.00 29.0 60.0 --
12/14/2021 20:00 651.87 0.00 29.8 58.0 --
12/14/2021 19:00 651.89 0.00 34.0 42.0 --
12/14/2021 18:00 651.88 0.00 34.3 40.0 --
12/14/2021 17:00 651.88 0.00 39.6 28.0 --
12/14/2021 16:00 651.89 0.00 41.5 27.0 --
12/14/2021 15:00 651.91 0.00 43.5 25.0 --
12/14/2021 14:00 651.89 0.00 44.1 26.0 --
12/14/2021 13:00 651.90 0.00 43.5 32.0 --
12/14/2021 12:00 651.91 0.00 42.9 38.0 --
12/14/2021 11:00 651.92 0.00 42.0 38.0 --
12/14/2021 10:00 651.93 0.00 41.5 46.0 --
12/14/2021 09:00 651.94 0.00 41.1 53.0 --
12/14/2021 08:00 651.93 0.00 40.2 54.0 --
12/14/2021 07:00 651.96 0.00 40.7 51.0 --
12/14/2021 06:00 651.94 0.00 37.6 66.0 --
12/14/2021 05:00 651.94 0.00 42.1 58.0 --
12/14/2021 04:00 651.94 0.00 42.7 57.0 --
12/14/2021 03:00 651.96 0.00 32.6 70.0 --
12/14/2021 02:00 651.97 0.00 32.0 72.0 --
12/14/2021 01:00 651.97 0.00 34.2 63.0 --
12/14/2021 00:00 651.97 0.00 37.4 56.0 --
12/13/2021 23:00 651.99 0.00 45.4 31.0 --
12/13/2021 22:00 651.98 0.00 45.0 33.0 --
12/13/2021 21:00 652.00 0.00 45.8 33.0 --
12/13/2021 20:00 652.00 0.00 45.2 33.0 --
12/13/2021 19:00 652.00 0.00 47.5 28.0 --
12/13/2021 18:00 652.02 0.00 48.4 26.0 --
12/13/2021 17:00 652.02 0.00 48.7 27.0 --
12/13/2021 16:00 652.02 0.00 50.7 26.0 --
12/13/2021 15:00 652.03 0.00 51.9 24.0 --
12/13/2021 14:00 652.02 0.00 51.5 24.0 --
12/13/2021 13:00 652.03 0.00 49.3 31.0 --
12/13/2021 12:00 652.03 0.00 46.6 33.0 --
12/13/2021 11:00 652.03 0.00 43.8 40.0 --
12/13/2021 10:00 652.03 0.00 42.5 41.0 --
12/13/2021 09:00 652.04 0.00 41.0 41.0 --
12/13/2021 08:00 652.04 0.00 40.5 42.0 --
12/13/2021 07:00 652.06 0.00 40.2 42.0 --
12/13/2021 06:00 652.05 0.00 39.5 43.0 --
12/13/2021 05:00 652.04 0.00 39.4 43.0 --
12/13/2021 04:00 652.05 0.00 39.0 43.0 --
12/13/2021 03:00 652.04 0.00 38.8 43.0 --
12/13/2021 02:00 652.04 0.00 27.9 79.0 --
12/13/2021 01:00 652.05 0.00 30.2 73.0 --
12/13/2021 00:00 652.03 0.00 27.5 77.0 --
12/12/2021 23:00 652.03 0.00 29.3 75.0 --
12/12/2021 22:00 652.03 0.00 30.0 69.0 --
12/12/2021 21:00 652.01 0.00 34.3 50.0 --
12/12/2021 20:00 652.02 0.00 37.0 40.0 --
12/12/2021 19:00 652.02 0.00 38.0 40.0 --
12/12/2021 18:00 652.02 0.00 37.9 47.0 --
12/12/2021 17:00 652.02 0.00 39.2 45.0 --
12/12/2021 16:00 652.01 0.00 40.3 41.0 --
12/12/2021 15:00 651.99 0.00 41.3 38.0 --
12/12/2021 14:00 651.96 0.00 42.0 33.0 --
12/12/2021 13:00 651.98 0.00 41.4 34.0 --
12/12/2021 12:00 651.94 0.00 40.0 31.0 --
12/12/2021 11:00 651.94 0.00 39.2 31.0 --
12/12/2021 10:00 651.94 0.00 37.9 33.0 --
12/12/2021 09:00 651.92 0.00 37.0 43.0 --
12/12/2021 08:00 651.86 0.00 36.7 47.0 --
12/12/2021 07:00 651.89 0.00 37.5 48.0 --
12/12/2021 06:00 651.83 0.00 39.3 45.0 --
12/12/2021 05:00 651.86 0.06 40.2 54.0 --
12/12/2021 04:00 651.86 0.00 41.2 54.0 --
12/12/2021 03:00 651.86 0.05 41.9 55.0 --
12/12/2021 02:00 651.83 0.00 42.2 61.0 --
12/12/2021 01:00 651.80 0.06 43.2 66.0 --
12/12/2021 00:00 651.85 0.33 47.5 79.0 --
12/11/2021 23:00 651.73 0.04 60.0 87.0 --
12/11/2021 22:00 651.72 0.00 59.4 87.0 --
12/11/2021 21:00 651.66 0.00 58.8 91.0 --
12/11/2021 20:00 651.65 0.01 57.4 96.0 --
12/11/2021 19:00 651.63 0.00 54.8 100.0 --
12/11/2021 18:00 651.60 0.00 39.7 100.0 --
12/11/2021 17:00 651.58 0.00 32.9 100.0 --
12/11/2021 16:00 651.56 0.00 32.6 100.0 --
12/11/2021 15:00 651.53 0.00 32.5 100.0 --
12/11/2021 14:00 651.54 0.00 32.7 100.0 --
12/11/2021 13:00 651.53 0.04 32.6 100.0 --
12/11/2021 12:00 651.51 0.55 32.4 100.0 --
12/11/2021 11:00 651.48 0.00 32.0 100.0 --
12/11/2021 10:00 651.43 0.00 31.5 100.0 --
12/11/2021 09:00 651.43 0.00 29.5 100.0 --
12/11/2021 08:00 651.43 0.00 27.6 100.0 --
12/11/2021 07:00 651.44 0.00 27.1 100.0 --
12/11/2021 06:00 651.43 0.00 27.3 92.0 --
12/11/2021 05:00 651.44 0.00 27.4 89.0 --
12/11/2021 04:00 651.44 0.00 27.2 90.0 --
12/11/2021 03:00 651.43 0.00 26.3 91.0 --
12/11/2021 02:00 651.43 0.00 25.8 92.0 --
12/11/2021 01:00 651.43 0.00 24.7 93.0 --
12/11/2021 00:00 651.43 0.00 23.0 96.0 --
12/10/2021 23:00 651.44 0.00 23.7 94.0 --
12/10/2021 22:00 651.44 0.00 24.7 90.0 --
12/10/2021 21:00 651.43 0.00 25.9 88.0 --
12/10/2021 20:00 651.43 0.00 26.8 86.0 --
12/10/2021 19:00 651.43 0.00 27.3 85.0 --
12/10/2021 18:00 651.43 0.00 28.3 82.0 --
12/10/2021 17:00 651.44 0.00 28.3 79.0 --
12/10/2021 16:00 651.45 0.00 31.4 70.0 --
12/10/2021 15:00 651.45 0.00 31.5 67.0 --
12/10/2021 14:00 651.45 0.00 29.8 67.0 --
12/10/2021 13:00 651.45 0.00 28.6 69.0 --
12/10/2021 12:00 651.45 0.00 26.3 74.0 --
12/10/2021 11:00 651.46 0.00 25.2 77.0 --
12/10/2021 10:00 651.46 0.00 22.9 80.0 --
12/10/2021 09:00 651.45 0.00 22.5 82.0 --
12/10/2021 08:00 651.46 0.00 22.6 82.0 --
12/10/2021 07:00 651.46 0.00 22.1 82.0 --
12/10/2021 06:00 651.45 0.00 22.7 76.0 --
12/10/2021 05:00 651.45 0.00 22.8 76.0 --
12/10/2021 04:00 651.46 0.00 22.3 81.0 --
12/10/2021 03:00 651.47 0.00 21.0 85.0 --
12/10/2021 02:00 651.46 0.00 19.9 87.0 --
12/10/2021 01:00 651.46 0.00 19.7 86.0 --
12/10/2021 00:00 651.47 0.00 20.8 81.0 --
12/09/2021 23:00 651.47 0.00 23.2 73.0 --
12/09/2021 22:00 651.46 0.00 24.9 65.0 --
12/09/2021 21:00 651.46 0.00 25.2 68.0 --
12/09/2021 20:00 651.46 0.00 25.4 66.0 --
12/09/2021 19:00 651.47 0.00 26.4 63.0 --
12/09/2021 18:00 651.47 0.00 27.4 60.0 --
12/09/2021 17:00 651.48 0.00 28.5 57.0 --
12/09/2021 16:00 651.48 0.00 29.5 54.0 --
12/09/2021 15:00 651.49 0.00 29.7 52.0 --
12/09/2021 14:00 651.47 0.00 31.2 47.0 --
12/09/2021 13:00 651.47 0.00 30.9 50.0 --
12/09/2021 12:00 651.49 0.00 30.0 56.0 --
12/09/2021 11:00 651.49 0.00 29.4 60.0 --
12/09/2021 10:00 651.49 0.00 28.1 73.0 --
12/09/2021 09:00 651.49 0.00 26.1 80.0 --
12/09/2021 08:00 651.48 0.00 23.5 93.0 --
12/09/2021 07:00 651.48 0.00 19.4 98.0 --
12/09/2021 06:00 651.49 0.00 19.0 98.0 --
12/09/2021 05:00 651.49 0.00 20.7 98.0 --
12/09/2021 04:00 651.49 0.00 22.4 98.0 --
12/09/2021 03:00 651.49 0.00 22.1 98.0 --
12/09/2021 02:00 651.49 0.00 23.8 98.0 --
12/09/2021 01:00 651.49 0.00 23.7 97.0 --
12/09/2021 00:00 651.49 0.00 23.4 94.0 --
12/08/2021 23:00 651.48 0.00 23.0 93.0 --
12/08/2021 22:00 651.48 0.00 23.4 94.0 --
12/08/2021 21:00 651.49 0.00 23.9 94.0 --
12/08/2021 20:00 651.48 0.00 24.4 94.0 --
12/08/2021 19:00 651.49 0.00 25.4 89.0 --
12/08/2021 18:00 651.49 0.00 26.8 89.0 --
12/08/2021 17:00 651.48 0.00 27.9 82.0 --
12/08/2021 16:00 651.49 0.00 29.0 77.0 --
12/08/2021 15:00 651.49 0.00 29.9 75.0 --
12/08/2021 14:00 651.49 0.00 30.1 72.0 --
12/08/2021 13:00 651.50 0.00 29.8 67.0 --
12/08/2021 12:00 651.49 0.00 29.5 69.0 --
12/08/2021 11:00 651.49 0.00 28.9 70.0 --
12/08/2021 10:00 651.49 0.00 27.6 77.0 --
12/08/2021 09:00 651.50 0.00 27.1 82.0 --
12/08/2021 08:00 651.50 0.00 27.2 75.0 --
12/08/2021 07:00 651.50 0.00 26.9 73.0 --
12/08/2021 06:00 651.50 0.00 26.7 75.0 --
12/08/2021 05:00 651.50 0.00 26.4 76.0 --
12/08/2021 04:00 651.49 0.00 25.9 78.0 --
12/08/2021 03:00 651.49 0.00 25.4 77.0 --
12/08/2021 02:00 651.50 0.00 25.2 77.0 --
12/08/2021 01:00 651.50 0.00 25.7 76.0 --
12/08/2021 00:00 651.50 0.00 27.7 69.0 --
12/07/2021 23:00 651.50 0.00 27.6 67.0 --
12/07/2021 22:00 651.51 0.00 29.7 61.0 --
12/07/2021 21:00 651.50 0.00 30.5 61.0 --
12/07/2021 20:00 651.50 0.00 31.9 59.0 --
12/07/2021 19:00 651.51 0.00 32.9 57.0 --
12/07/2021 18:00 651.49 0.00 33.1 55.0 --
12/07/2021 17:00 651.49 0.00 33.5 48.0 --
12/07/2021 16:00 651.50 0.00 34.7 43.0 --
12/07/2021 15:00 651.49 0.00 34.6 40.0 --
12/07/2021 14:00 651.50 0.00 35.1 38.0 --
12/07/2021 13:00 651.53 0.00 35.2 36.0 --
12/07/2021 12:00 651.46 0.00 35.3 34.0 --
12/07/2021 11:00 651.50 0.00 35.0 38.0 --
12/07/2021 10:00 651.52 0.00 34.2 43.0 --
12/07/2021 09:00 651.47 0.00 33.9 44.0 --
12/07/2021 08:00 651.48 0.00 33.6 44.0 --
12/07/2021 07:00 651.50 0.00 34.3 51.0 --
12/07/2021 06:00 651.48 0.00 35.3 48.0 --
12/07/2021 05:00 651.48 0.00 35.3 53.0 --
12/07/2021 04:00 651.49 0.00 35.4 54.0 --
12/07/2021 03:00 651.48 0.00 35.5 57.0 --
12/07/2021 02:00 651.51 0.00 36.1 53.0 --
12/07/2021 01:00 651.47 0.02 37.4 52.0 --
12/07/2021 00:00 651.49 0.05 39.1 59.0 --
12/06/2021 23:00 651.54 0.02 39.6 77.0 --
12/06/2021 22:00 651.50 0.24 43.5 73.0 --
12/06/2021 21:00 651.48 0.01 53.9 91.0 --
12/06/2021 20:00 651.46 0.05 53.8 95.0 --
12/06/2021 19:00 651.47 0.00 54.8 86.0 --
12/06/2021 18:00 651.43 0.00 56.2 79.0 --
12/06/2021 17:00 651.45 0.00 56.2 82.0 --
12/06/2021 16:00 651.47 0.00 55.7 86.0 --
12/06/2021 15:00 651.50 0.00 53.6 95.0 --
12/06/2021 14:00 651.45 0.01 47.6 100.0 --
12/06/2021 13:00 651.45 0.00 37.1 100.0 --
12/06/2021 12:00 651.46 0.00 36.5 100.0 --
12/06/2021 11:00 651.46 0.00 36.0 100.0 --
12/06/2021 10:00 651.46 0.01 34.1 100.0 --
12/06/2021 09:00 651.47 0.03 33.7 100.0 --
12/06/2021 08:00 651.46 0.03 33.1 100.0 --
12/06/2021 07:00 651.45 0.00 32.7 100.0 --
12/06/2021 06:00 651.44 0.01 32.7 99.0 --
12/06/2021 05:00 651.45 0.00 32.7 90.0 --
12/06/2021 04:00 651.46 0.00 34.1 79.0 --
12/06/2021 03:00 651.46 0.00 35.4 70.0 --
12/06/2021 02:00 651.47 0.00 35.4 69.0 --
12/06/2021 01:00 651.46 0.00 34.7 68.0 --
12/06/2021 00:00 651.46 0.00 33.7 66.0 --
12/05/2021 23:00 651.47 0.00 32.4 67.0 --
12/05/2021 22:00 651.46 0.00 32.6 63.0 --
12/05/2021 21:00 651.48 0.00 29.4 77.0 --
12/05/2021 20:00 651.46 0.00 28.9 77.0 --
12/05/2021 19:00 651.46 0.00 28.8 76.0 --
12/05/2021 18:00 651.47 0.00 28.9 74.0 --
12/05/2021 17:00 651.47 0.00 30.8 71.0 --
12/05/2021 16:00 651.47 0.00 32.1 65.0 --
12/05/2021 15:00 651.48 0.00 37.6 45.0 --
12/05/2021 14:00 651.48 0.00 37.4 45.0 --
12/05/2021 13:00 651.48 0.00 36.3 49.0 --
12/05/2021 12:00 651.47 0.00 36.2 52.0 --
12/05/2021 11:00 651.48 0.00 35.2 62.0 --
12/05/2021 10:00 651.49 0.00 32.2 77.0 --
12/05/2021 09:00 651.48 0.00 28.0 90.0 --
12/05/2021 08:00 651.49 0.00 25.3 96.0 --
12/05/2021 07:00 651.48 0.00 24.7 96.0 --
12/05/2021 06:00 651.48 0.00 26.2 93.0 --
12/05/2021 05:00 651.48 0.00 25.8 96.0 --
12/05/2021 04:00 651.48 0.00 25.4 94.0 --
12/05/2021 03:00 651.49 0.00 27.0 91.0 --
12/05/2021 02:00 651.49 0.00 27.6 93.0 --
12/05/2021 01:00 651.49 0.00 28.8 90.0 --
12/05/2021 00:00 651.49 0.00 28.5 93.0 --
12/04/2021 23:00 651.50 0.00 31.2 87.0 --
12/04/2021 22:00 651.50 0.00 30.6 87.0 --
12/04/2021 21:00 651.49 0.00 32.5 80.0 --
12/04/2021 20:00 651.49 0.00 33.6 77.0 --
12/04/2021 19:00 651.50 0.00 34.6 72.0 --
12/04/2021 18:00 651.50 0.00 31.1 78.0 --
12/04/2021 17:00 651.50 0.00 30.1 76.0 --
12/04/2021 16:00 651.49 0.00 34.1 66.0 --
12/04/2021 15:00 651.49 0.00 36.6 55.0 --
12/04/2021 14:00 651.49 0.00 36.3 53.0 --
12/04/2021 13:00 651.50 0.00 35.4 51.0 --
12/04/2021 12:00 651.50 0.00 32.4 49.0 --
12/04/2021 11:00 651.51 0.00 29.0 47.0 --
12/04/2021 10:00 651.50 0.00 26.3 57.0 --
12/04/2021 09:00 651.51 0.00 23.0 65.0 --
12/04/2021 08:00 651.51 0.00 19.4 80.0 --
12/04/2021 07:00 651.50 0.00 19.5 81.0 --
12/04/2021 06:00 651.50 0.00 19.9 80.0 --
12/04/2021 05:00 651.51 0.00 19.7 82.0 --
12/04/2021 04:00 651.50 0.00 20.5 76.0 --
12/04/2021 03:00 651.51 0.00 21.6 72.0 --
12/04/2021 02:00 651.50 0.00 22.8 66.0 --
12/04/2021 01:00 651.50 0.00 25.0 57.0 --
12/04/2021 00:00 651.48 0.00 27.3 45.0 --
12/03/2021 23:00 651.50 0.00 27.9 45.0 --
12/03/2021 22:00 651.50 0.00 28.7 43.0 --
12/03/2021 21:00 651.50 0.00 29.5 41.0 --
12/03/2021 20:00 651.50 0.00 30.0 37.0 --
12/03/2021 19:00 651.51 0.00 30.5 35.0 --
12/03/2021 18:00 651.49 0.00 31.3 43.0 --
12/03/2021 17:00 651.51 0.00 31.8 42.0 --
12/03/2021 16:00 651.51 0.00 33.3 38.0 --
12/03/2021 15:00 651.49 0.00 34.2 40.0 --
12/03/2021 14:00 651.49 0.00 34.2 44.0 --
12/03/2021 13:00 651.47 0.00 34.4 48.0 --
12/03/2021 12:00 651.53 0.02 33.4 52.0 --
12/03/2021 11:00 651.47 0.00 33.4 53.0 --
12/03/2021 10:00 651.50 0.00 32.0 59.0 --
12/03/2021 09:00 651.48 0.00 32.4 58.0 --
12/03/2021 08:00 651.52 0.02 32.6 62.0 --
12/03/2021 07:00 651.48 0.02 33.5 63.0 --
12/03/2021 06:00 651.48 0.00 34.6 63.0 --
12/03/2021 05:00 651.51 0.01 37.4 65.0 --
12/03/2021 04:00 651.47 0.00 38.9 75.0 --
12/03/2021 03:00 651.46 0.00 38.3 81.0 --
12/03/2021 02:00 651.46 0.00 37.6 89.0 --
12/03/2021 01:00 651.46 0.00 40.6 85.0 --
12/03/2021 00:00 651.47 0.00 40.7 90.0 --
12/02/2021 23:00 651.47 0.00 41.6 90.0 --
12/02/2021 22:00 651.46 0.01 41.5 96.0 --
12/02/2021 21:00 651.47 0.03 43.8 93.0 --
12/02/2021 20:00 651.45 0.00 46.9 89.0 --
12/02/2021 19:00 651.46 0.00 48.1 86.0 --
12/02/2021 18:00 651.44 0.00 46.7 98.0 --
12/02/2021 17:00 651.44 0.00 39.1 100.0 --
12/02/2021 16:00 651.44 0.00 35.1 100.0 --
12/02/2021 15:00 651.43 0.02 35.1 100.0 --
12/02/2021 14:00 651.44 0.03 34.3 100.0 --
12/02/2021 13:00 651.44 0.05 33.1 100.0 --
12/02/2021 12:00 651.44 0.02 32.6 100.0 --
12/02/2021 11:00 651.44 0.03 32.2 100.0 --
12/02/2021 10:00 651.44 0.03 32.3 100.0 --
12/02/2021 09:00 651.43 0.03 32.1 100.0 --
12/02/2021 08:00 651.43 0.00 32.2 100.0 --
12/02/2021 07:00 651.44 0.00 31.6 100.0 --
12/02/2021 06:00 651.44 0.00 30.6 100.0 --
12/02/2021 05:00 651.42 0.00 30.6 100.0 --
12/02/2021 04:00 651.43 0.00 30.7 93.0 --
12/02/2021 03:00 651.43 0.00 31.5 83.0 --
12/02/2021 02:00 651.43 0.00 30.7 84.0 --
12/02/2021 01:00 651.42 0.00 30.2 83.0 --
12/02/2021 00:00 651.43 0.00 30.4 82.0 --
12/01/2021 23:00 651.43 0.00 30.6 82.0 --
12/01/2021 22:00 651.42 0.00 30.6 79.0 --
12/01/2021 21:00 651.42 0.00 31.1 79.0 --
12/01/2021 20:00 651.42 0.00 30.7 79.0 --
12/01/2021 19:00 651.43 0.00 30.4 78.0 --
12/01/2021 18:00 651.44 0.00 30.6 74.0 --
12/01/2021 17:00 651.44 0.00 32.2 69.0 --
12/01/2021 16:00 651.44 0.00 39.5 52.0 --
12/01/2021 15:00 651.42 0.00 40.7 50.0 --
12/01/2021 14:00 651.45 0.00 40.5 51.0 --
12/01/2021 13:00 651.43 0.00 40.9 54.0 --
12/01/2021 12:00 651.44 0.00 40.4 58.0 --
12/01/2021 11:00 651.43 0.00 39.4 65.0 --
12/01/2021 10:00 651.43 0.00 37.7 73.0 --
12/01/2021 09:00 651.44 0.00 36.5 76.0 --
12/01/2021 08:00 651.44 0.00 28.9 96.0 --
12/01/2021 07:00 651.45 0.00 29.0 92.0 --
12/01/2021 06:00 651.45 0.00 30.3 87.0 --
12/01/2021 05:00 651.46 0.00 30.6 86.0 --
12/01/2021 04:00 651.45 0.00 31.4 85.0 --
12/01/2021 03:00 651.45 0.00 32.5 81.0 --
12/01/2021 02:00 651.45 0.00 32.1 81.0 --
12/01/2021 01:00 651.45 0.00 31.7 78.0 --
12/01/2021 00:00 651.45 0.00 31.6 79.0 --
11/30/2021 23:00 651.45 0.00 31.7 80.0 --
11/30/2021 22:00 651.46 0.00 32.1 78.0 --
11/30/2021 21:00 651.46 0.00 32.7 72.0 --
11/30/2021 20:00 651.46 0.00 32.4 66.0 --
11/30/2021 19:00 651.45 0.00 30.5 76.0 --
11/30/2021 18:00 651.46 0.00 33.0 66.0 --
11/30/2021 17:00 651.47 0.00 34.6 61.0 --
11/30/2021 16:00 651.47 0.00 34.2 61.0 --
11/30/2021 15:00 651.47 0.00 34.6 58.0 --
11/30/2021 14:00 651.48 0.00 33.7 56.0 --
11/30/2021 13:00 651.47 0.00 32.8 56.0 --
11/30/2021 12:00 651.48 0.00 30.6 57.0 --
11/30/2021 11:00 651.48 0.00 27.3 60.0 --
11/30/2021 10:00 651.48 0.00 24.4 66.0 --
11/30/2021 09:00 651.47 0.00 21.4 71.0 --
11/30/2021 08:00 651.48 0.00 20.1 74.0 --
11/30/2021 07:00 651.48 0.00 19.9 72.0 --
11/30/2021 06:00 651.48 0.00 21.7 71.0 --
11/30/2021 05:00 651.48 0.00 21.3 71.0 --
11/30/2021 04:00 651.48 0.00 21.5 69.0 --
11/30/2021 03:00 651.50 0.00 22.6 68.0 --
11/30/2021 02:00 651.48 0.00 22.1 67.0 --
11/30/2021 01:00 651.49 0.00 22.9 65.0 --
11/30/2021 00:00 651.50 0.00 24.6 58.0 --
11/29/2021 23:00 651.49 0.00 25.8 54.0 --
11/29/2021 22:00 651.50 0.00 26.4 53.0 --
11/29/2021 21:00 651.50 0.00 27.0 50.0 --
11/29/2021 20:00 651.49 0.00 28.0 51.0 --
11/29/2021 19:00 651.50 0.00 29.4 58.0 --
11/29/2021 18:00 651.49 0.00 30.4 59.0 --
11/29/2021 17:00 651.50 0.00 31.5 54.0 --
11/29/2021 16:00 651.50 0.00 32.8 50.0 --
11/29/2021 15:00 651.50 0.00 33.0 52.0 --
11/29/2021 14:00 651.51 0.00 33.1 49.0 --
11/29/2021 13:00 651.52 0.00 33.2 56.0 --
11/29/2021 12:00 651.51 0.00 31.7 67.0 --
11/29/2021 11:00 651.51 0.00 30.6 75.0 --
11/29/2021 10:00 651.51 0.00 29.0 77.0 --
11/29/2021 09:00 651.51 0.00 28.4 76.0 --
11/29/2021 08:00 651.51 0.00 28.1 77.0 --
11/29/2021 07:00 651.50 0.00 27.8 78.0 --
11/29/2021 06:00 651.51 0.00 27.8 80.0 --
11/29/2021 05:00 651.52 0.00 27.3 80.0 --
11/29/2021 04:00 651.52 0.00 28.3 73.0 --
11/29/2021 03:00 651.51 0.00 28.7 70.0 --
11/29/2021 02:00 651.51 0.00 29.0 72.0 --
11/29/2021 01:00 651.52 0.00 29.0 68.0 --
11/29/2021 00:00 651.52 0.00 29.4 67.0 --
11/28/2021 23:00 651.53 0.00 29.4 61.0 --
11/28/2021 22:00 651.52 0.00 29.5 60.0 --
11/28/2021 21:00 651.53 0.00 30.0 59.0 --
11/28/2021 20:00 651.53 0.00 30.4 56.0 --
11/28/2021 19:00 651.53 0.00 30.6 55.0 --
11/28/2021 18:00 651.52 0.00 30.9 56.0 --
11/28/2021 17:00 651.53 0.00 32.2 57.0 --
11/28/2021 16:00 651.53 0.00 32.4 56.0 --
11/28/2021 15:00 651.54 0.00 31.6 50.0 --
11/28/2021 14:00 651.54 0.00 30.8 46.0 --
11/28/2021 13:00 651.53 0.00 29.8 37.0 --
11/28/2021 12:00 651.54 0.00 28.8 41.0 --
11/28/2021 11:00 651.55 0.00 27.4 47.0 --
11/28/2021 10:00 651.55 0.00 24.2 60.0 --
11/28/2021 09:00 651.54 0.00 21.6 68.0 --
11/28/2021 08:00 651.54 0.00 22.6 62.0 --
11/28/2021 07:00 651.53 0.00 22.6 60.0 --
11/28/2021 06:00 651.55 0.00 23.3 61.0 --
11/28/2021 05:00 651.56 0.00 22.7 60.0 --
11/28/2021 04:00 651.56 0.00 23.8 63.0 --
11/28/2021 03:00 651.56 0.00 23.7 60.0 --
11/28/2021 02:00 651.56 0.00 24.4 64.0 --
11/28/2021 01:00 651.56 0.00 24.5 63.0 --
11/28/2021 00:00 651.56 0.00 24.9 64.0 --
11/27/2021 23:00 651.57 0.00 25.3 65.0 --
11/27/2021 22:00 651.54 0.00 25.9 63.0 --
11/27/2021 21:00 651.55 0.00 26.5 62.0 --
11/27/2021 20:00 651.54 0.00 26.7 65.0 --
11/27/2021 19:00 651.54 0.00 27.8 64.0 --
11/27/2021 18:00 651.56 0.00 28.8 66.0 --
11/27/2021 17:00 651.55 0.00 29.2 65.0 --
11/27/2021 16:00 651.57 0.00 29.7 66.0 --
11/27/2021 15:00 651.55 0.00 30.8 66.0 --
11/27/2021 14:00 651.57 0.00 28.8 69.0 --
11/27/2021 13:00 651.55 0.00 27.5 70.0 --
11/27/2021 12:00 651.55 0.00 27.4 72.0 --
11/27/2021 11:00 651.56 0.00 27.0 76.0 --
11/27/2021 10:00 651.57 0.00 27.6 81.0 --
11/27/2021 09:00 651.56 0.01 28.2 81.0 --
11/27/2021 08:00 651.56 0.00 28.6 83.0 --
11/27/2021 07:00 651.56 0.00 29.2 83.0 --
11/27/2021 06:00 651.56 0.00 29.3 86.0 --
11/27/2021 05:00 651.57 0.00 29.7 85.0 --
11/27/2021 04:00 651.56 0.00 30.4 90.0 --
11/27/2021 03:00 651.56 0.00 31.4 84.0 --
11/27/2021 02:00 651.56 0.00 32.1 88.0 --
11/27/2021 01:00 651.55 0.01 32.6 100.0 --
11/27/2021 00:00 651.54 0.01 32.9 100.0 --
11/26/2021 23:00 651.55 0.01 33.0 100.0 --
11/26/2021 22:00 651.54 0.01 33.2 100.0 --
11/26/2021 21:00 651.54 0.01 34.3 93.0 --
11/26/2021 20:00 651.54 0.00 34.9 93.0 --
11/26/2021 19:00 651.54 0.02 34.3 98.0 --
11/26/2021 18:00 651.54 0.01 36.0 93.0 --
11/26/2021 17:00 651.54 0.01 37.2 93.0 --
11/26/2021 16:00 651.52 0.02 37.9 95.0 --
11/26/2021 15:00 651.54 0.03 39.1 95.0 --
11/26/2021 14:00 651.53 0.01 40.0 96.0 --
11/26/2021 13:00 651.53 0.00 40.6 89.0 --
11/26/2021 12:00 651.52 0.00 40.6 86.0 --
11/26/2021 11:00 651.52 0.00 40.5 83.0 --
11/26/2021 10:00 651.53 0.00 40.1 84.0 --
11/26/2021 09:00 651.53 0.00 39.6 86.0 --
11/26/2021 08:00 651.54 0.00 40.1 83.0 --
11/26/2021 07:00 651.53 0.00 40.1 82.0 --
11/26/2021 06:00 651.53 0.00 40.8 79.0 --
11/26/2021 05:00 651.53 0.00 41.0 79.0 --
11/26/2021 04:00 651.53 0.00 41.1 77.0 --
11/26/2021 03:00 651.53 0.00 41.3 73.0 --
11/26/2021 02:00 651.53 0.00 42.0 59.0 --
11/26/2021 01:00 651.54 0.00 38.0 76.0 --
11/26/2021 00:00 651.54 0.00 38.7 69.0 --
11/25/2021 23:00 651.55 0.00 37.9 74.0 --
11/25/2021 22:00 651.53 0.00 38.0 73.0 --
11/25/2021 21:00 651.53 0.00 38.8 75.0 --
11/25/2021 20:00 651.54 0.00 38.9 76.0 --
11/25/2021 19:00 651.55 0.00 40.0 71.0 --
11/25/2021 18:00 651.55 0.00 40.5 68.0 --
11/25/2021 17:00 651.55 0.00 42.8 62.0 --
11/25/2021 16:00 651.54 0.00 46.0 46.0 --
11/25/2021 15:00 651.54 0.00 47.8 40.0 --
11/25/2021 14:00 651.55 0.00 45.5 43.0 --
11/25/2021 13:00 651.55 0.00 45.0 44.0 --
11/25/2021 12:00 651.56 0.00 45.8 43.0 --
11/25/2021 11:00 651.56 0.00 42.1 52.0 --
11/25/2021 10:00 651.56 0.00 34.5 72.0 --
11/25/2021 09:00 651.57 0.00 30.0 81.0 --
11/25/2021 08:00 651.56 0.00 28.5 79.0 --
11/25/2021 07:00 651.56 0.00 29.0 78.0 --
11/25/2021 06:00 651.56 0.00 29.8 75.0 --
11/25/2021 05:00 651.55 0.00 29.0 76.0 --
11/25/2021 04:00 651.56 0.00 28.3 76.0 --
11/25/2021 03:00 651.57 0.00 30.2 68.0 --
11/25/2021 02:00 651.57 0.00 29.9 62.0 --
11/25/2021 01:00 651.58 0.00 30.1 62.0 --
11/25/2021 00:00 651.57 0.00 29.7 58.0 --
11/24/2021 23:00 651.57 0.00 29.2 61.0 --
11/24/2021 22:00 651.58 0.00 31.9 46.0 --
11/24/2021 21:00 651.58 0.00 33.1 42.0 --
11/24/2021 20:00 651.58 0.00 29.4 52.0 --
11/24/2021 19:00 651.58 0.00 32.2 43.0 --
11/24/2021 18:00 651.58 0.00 34.1 39.0 --
11/24/2021 17:00 651.59 0.00 37.2 29.0 --
11/24/2021 16:00 651.59 0.00 38.4 27.0 --
11/24/2021 15:00 651.59 0.00 37.5 30.0 --
11/24/2021 14:00 651.59 0.00 35.9 33.0 --
11/24/2021 13:00 651.61 0.00 33.6 41.0 --
11/24/2021 12:00 651.59 0.00 31.8 42.0 --
11/24/2021 11:00 651.60 0.00 30.0 50.0 --
11/24/2021 10:00 651.61 0.00 27.2 59.0 --
11/24/2021 09:00 651.60 0.00 24.9 68.0 --
11/24/2021 08:00 651.61 0.00 24.3 71.0 --
11/24/2021 07:00 651.62 0.00 24.4 67.0 --
11/24/2021 06:00 651.62 0.00 24.1 69.0 --
11/24/2021 05:00 651.62 0.00 24.1 67.0 --
11/24/2021 04:00 651.60 0.00 24.5 65.0 --
11/24/2021 03:00 651.61 0.00 24.9 62.0 --
11/24/2021 02:00 651.63 0.00 25.1 58.0 --
11/24/2021 01:00 651.63 0.00 25.4 56.0 --
11/24/2021 00:00 651.63 0.00 25.4 56.0 --
11/23/2021 23:00 -- -- -- -- --
11/23/2021 22:00 -- -- -- -- --